sensor_id;sensor_type;location;lat;lon;timestamp;pressure;altitude;pressure_sealevel;temperature;humidity
42671;BME280;28283;55.426;37.756;2024-02-04T00:02:08;96317.00;;;-1.23;87.77
42671;BME280;28283;55.426;37.756;2024-02-04T00:07:14;96309.66;;;-1.28;87.79
42671;BME280;28283;55.426;37.756;2024-02-04T00:12:14;96299.56;;;-1.31;88.15
42671;BME280;28283;55.426;37.756;2024-02-04T00:17:15;96282.72;;;-1.30;88.13
42671;BME280;28283;55.426;37.756;2024-02-04T00:22:15;96271.38;;;-1.30;88.28
42671;BME280;28283;55.426;37.756;2024-02-04T00:27:18;96266.91;;;-1.30;88.43
42671;BME280;28283;55.426;37.756;2024-02-04T00:32:19;96259.22;;;-1.25;88.90
42671;BME280;28283;55.426;37.756;2024-02-04T00:37:19;96234.28;;;-1.29;88.99
42671;BME280;28283;55.426;37.756;2024-02-04T00:42:20;96232.25;;;-1.27;88.96
42671;BME280;28283;55.426;37.756;2024-02-04T00:47:20;96236.72;;;-1.27;89.44
42671;BME280;28283;55.426;37.756;2024-02-04T00:52:21;96218.69;;;-1.24;89.48
42671;BME280;28283;55.426;37.756;2024-02-04T00:57:21;96217.84;;;-1.18;89.75
42671;BME280;28283;55.426;37.756;2024-02-04T01:02:22;96211.97;;;-1.20;89.97
42671;BME280;28283;55.426;37.756;2024-02-04T01:07:23;96197.78;;;-1.12;89.96
42671;BME280;28283;55.426;37.756;2024-02-04T01:12:23;96188.03;;;-1.05;90.07
42671;BME280;28283;55.426;37.756;2024-02-04T01:17:24;96181.94;;;-0.99;90.25
42671;BME280;28283;55.426;37.756;2024-02-04T01:22:24;96173.22;;;-0.99;90.32
42671;BME280;28283;55.426;37.756;2024-02-04T01:27:27;96167.94;;;-0.92;90.58
42671;BME280;28283;55.426;37.756;2024-02-04T01:32:27;96155.94;;;-0.88;90.44
42671;BME280;28283;55.426;37.756;2024-02-04T01:37:28;96147.81;;;-0.80;90.75
42671;BME280;28283;55.426;37.756;2024-02-04T01:42:28;96139.91;;;-0.73;90.83
42671;BME280;28283;55.426;37.756;2024-02-04T01:47:29;96132.19;;;-0.75;90.63
42671;BME280;28283;55.426;37.756;2024-02-04T01:52:30;96127.66;;;-0.61;90.70
42671;BME280;28283;55.426;37.756;2024-02-04T01:57:32;96118.13;;;-0.62;90.89
42671;BME280;28283;55.426;37.756;2024-02-04T02:02:36;96114.69;;;-0.63;91.10
42671;BME280;28283;55.426;37.756;2024-02-04T02:07:39;96097.22;;;-0.57;91.11
42671;BME280;28283;55.426;37.756;2024-02-04T02:18:03;96091.84;;;-0.44;91.29
42671;BME280;28283;55.426;37.756;2024-02-04T02:23:10;96088.13;;;-0.29;90.91
42671;BME280;28283;55.426;37.756;2024-02-04T02:28:12;96082.00;;;-0.23;90.69
42671;BME280;28283;55.426;37.756;2024-02-04T02:33:12;96079.44;;;-0.05;91.22
42671;BME280;28283;55.426;37.756;2024-02-04T02:43:32;96065.91;;;0.10;91.17
42671;BME280;28283;55.426;37.756;2024-02-04T02:48:34;96056.22;;;0.29;91.41
42671;BME280;28283;55.426;37.756;2024-02-04T02:53:34;96052.91;;;0.34;91.63
42671;BME280;28283;55.426;37.756;2024-02-04T02:58:35;96038.19;;;0.19;92.15
42671;BME280;28283;55.426;37.756;2024-02-04T03:03:35;96042.81;;;0.06;92.67
42671;BME280;28283;55.426;37.756;2024-02-04T03:08:36;96054.16;;;0.31;92.64
42671;BME280;28283;55.426;37.756;2024-02-04T03:13:39;96047.38;;;0.17;93.18
42671;BME280;28283;55.426;37.756;2024-02-04T03:18:40;96033.78;;;0.38;93.22
42671;BME280;28283;55.426;37.756;2024-02-04T03:23:41;96036.41;;;0.38;93.11
42671;BME280;28283;55.426;37.756;2024-02-04T03:28:42;96029.38;;;0.51;92.86
42671;BME280;28283;55.426;37.756;2024-02-04T03:33:42;96025.56;;;0.47;93.43
42671;BME280;28283;55.426;37.756;2024-02-04T03:38:43;96005.44;;;0.64;94.11
42671;BME280;28283;55.426;37.756;2024-02-04T03:43:44;96018.75;;;0.76;93.65
42671;BME280;28283;55.426;37.756;2024-02-04T03:48:44;96011.41;;;0.78;93.13
42671;BME280;28283;55.426;37.756;2024-02-04T03:53:45;96004.19;;;0.85;92.63
42671;BME280;28283;55.426;37.756;2024-02-04T03:58:46;96004.63;;;0.82;92.95
42671;BME280;28283;55.426;37.756;2024-02-04T04:03:46;95992.00;;;0.84;93.55
42671;BME280;28283;55.426;37.756;2024-02-04T04:08:47;95991.56;;;0.87;93.00
42671;BME280;28283;55.426;37.756;2024-02-04T04:13:48;95995.06;;;1.00;93.38
42671;BME280;28283;55.426;37.756;2024-02-04T04:18:48;95982.34;;;1.08;92.78
42671;BME280;28283;55.426;37.756;2024-02-04T04:23:49;95988.03;;;0.93;92.93
42671;BME280;28283;55.426;37.756;2024-02-04T04:28:50;95979.50;;;0.91;93.68
42671;BME280;28283;55.426;37.756;2024-02-04T04:33:50;95964.06;;;1.07;93.13
42671;BME280;28283;55.426;37.756;2024-02-04T04:38:52;95975.66;;;1.06;93.53
42671;BME280;28283;55.426;37.756;2024-02-04T04:43:53;95977.81;;;0.97;93.58
42671;BME280;28283;55.426;37.756;2024-02-04T04:48:53;95967.59;;;1.01;94.19
42671;BME280;28283;55.426;37.756;2024-02-04T04:53:58;95969.16;;;0.90;93.67
42671;BME280;28283;55.426;37.756;2024-02-04T04:58:58;95951.13;;;0.99;93.55
42671;BME280;28283;55.426;37.756;2024-02-04T05:03:59;95957.84;;;1.13;93.39
42671;BME280;28283;55.426;37.756;2024-02-04T05:09:00;95953.41;;;0.95;93.48
42671;BME280;28283;55.426;37.756;2024-02-04T05:14:01;95934.16;;;1.06;94.42
42671;BME280;28283;55.426;37.756;2024-02-04T05:19:02;95940.63;;;1.10;93.72
42671;BME280;28283;55.426;37.756;2024-02-04T05:24:02;95944.88;;;1.11;93.51
42671;BME280;28283;55.426;37.756;2024-02-04T05:29:03;95931.44;;;1.25;93.72
42671;BME280;28283;55.426;37.756;2024-02-04T05:34:05;95937.53;;;1.13;93.39
42671;BME280;28283;55.426;37.756;2024-02-04T05:39:10;95939.88;;;1.33;92.32
42671;BME280;28283;55.426;37.756;2024-02-04T05:44:11;95928.91;;;1.18;92.86
42671;BME280;28283;55.426;37.756;2024-02-04T05:49:12;95937.75;;;1.12;92.76
42671;BME280;28283;55.426;37.756;2024-02-04T05:54:12;95933.84;;;1.14;92.51
42671;BME280;28283;55.426;37.756;2024-02-04T05:59:12;95948.53;;;1.10;93.26
42671;BME280;28283;55.426;37.756;2024-02-04T06:04:13;95936.69;;;1.13;93.33
42671;BME280;28283;55.426;37.756;2024-02-04T06:09:14;95900.16;;;1.22;93.22
42671;BME280;28283;55.426;37.756;2024-02-04T06:14:15;95905.47;;;1.33;92.83
42671;BME280;28283;55.426;37.756;2024-02-04T06:19:15;95919.38;;;1.29;91.99
42671;BME280;28283;55.426;37.756;2024-02-04T06:24:16;95949.41;;;1.23;92.31
42671;BME280;28283;55.426;37.756;2024-02-04T06:29:16;95922.72;;;1.24;92.00
42671;BME280;28283;55.426;37.756;2024-02-04T06:34:17;95949.41;;;1.23;92.12
42671;BME280;28283;55.426;37.756;2024-02-04T06:39:17;95961.69;;;1.17;91.59
42671;BME280;28283;55.426;37.756;2024-02-04T06:44:18;95893.00;;;1.10;92.37
42671;BME280;28283;55.426;37.756;2024-02-04T06:49:18;95975.91;;;1.04;91.94
42671;BME280;28283;55.426;37.756;2024-02-04T06:54:19;95944.16;;;1.04;92.09
42671;BME280;28283;55.426;37.756;2024-02-04T06:59:20;95984.56;;;0.93;92.75
42671;BME280;28283;55.426;37.756;2024-02-04T07:04:21;95954.47;;;0.94;92.78
42671;BME280;28283;55.426;37.756;2024-02-04T07:09:22;95986.50;;;0.86;93.00
42671;BME280;28283;55.426;37.756;2024-02-04T07:14:23;95984.31;;;0.83;93.47
42671;BME280;28283;55.426;37.756;2024-02-04T07:19:23;96040.31;;;0.73;94.40
42671;BME280;28283;55.426;37.756;2024-02-04T07:24:24;96018.00;;;0.69;94.85
42671;BME280;28283;55.426;37.756;2024-02-04T07:29:24;96030.19;;;0.70;94.70
42671;BME280;28283;55.426;37.756;2024-02-04T07:34:25;96032.81;;;0.70;95.53
42671;BME280;28283;55.426;37.756;2024-02-04T07:39:25;96029.16;;;0.71;95.02
42671;BME280;28283;55.426;37.756;2024-02-04T07:44:27;96063.31;;;0.72;95.09
42671;BME280;28283;55.426;37.756;2024-02-04T07:49:27;96063.75;;;0.69;94.47
42671;BME280;28283;55.426;37.756;2024-02-04T07:54:28;96076.75;;;0.71;94.50
42671;BME280;28283;55.426;37.756;2024-02-04T07:59:29;96042.75;;;0.74;94.37
42671;BME280;28283;55.426;37.756;2024-02-04T08:04:29;96096.66;;;0.73;94.58
42671;BME280;28283;55.426;37.756;2024-02-04T08:09:30;96078.59;;;0.70;94.16
42671;BME280;28283;55.426;37.756;2024-02-04T08:14:30;96136.59;;;0.65;94.55
42671;BME280;28283;55.426;37.756;2024-02-04T08:19:31;96151.69;;;0.58;95.56
42671;BME280;28283;55.426;37.756;2024-02-04T08:24:32;96106.97;;;0.56;94.97
42671;BME280;28283;55.426;37.756;2024-02-04T08:29:32;96141.56;;;0.55;95.82
42671;BME280;28283;55.426;37.756;2024-02-04T08:34:32;96139.13;;;0.53;95.82
42671;BME280;28283;55.426;37.756;2024-02-04T08:39:33;96171.50;;;0.49;95.45
42671;BME280;28283;55.426;37.756;2024-02-04T08:44:33;96185.25;;;0.57;95.51
42671;BME280;28283;55.426;37.756;2024-02-04T08:49:33;96156.59;;;0.54;95.27
42671;BME280;28283;55.426;37.756;2024-02-04T08:54:34;96181.63;;;0.52;96.22
42671;BME280;28283;55.426;37.756;2024-02-04T08:59:35;96202.13;;;0.56;96.02
42671;BME280;28283;55.426;37.756;2024-02-04T09:04:35;96186.00;;;0.65;95.52
42671;BME280;28283;55.426;37.756;2024-02-04T09:09:40;96183.75;;;0.68;94.54
42671;BME280;28283;55.426;37.756;2024-02-04T09:14:41;96194.41;;;0.80;92.80
42671;BME280;28283;55.426;37.756;2024-02-04T09:19:42;96206.63;;;0.81;90.76
42671;BME280;28283;55.426;37.756;2024-02-04T09:24:43;96205.16;;;0.85;90.82
42671;BME280;28283;55.426;37.756;2024-02-04T09:29:43;96220.75;;;0.93;88.92
42671;BME280;28283;55.426;37.756;2024-02-04T09:34:44;96214.22;;;0.96;85.78
42671;BME280;28283;55.426;37.756;2024-02-04T09:39:44;96225.31;;;1.05;86.86
42671;BME280;28283;55.426;37.756;2024-02-04T09:44:45;96180.88;;;1.13;81.70
42671;BME280;28283;55.426;37.756;2024-02-04T09:49:46;96229.63;;;1.24;82.46
42671;BME280;28283;55.426;37.756;2024-02-04T09:54:49;96177.81;;;1.35;78.42
42671;BME280;28283;55.426;37.756;2024-02-04T09:59:50;96247.47;;;1.29;78.25
42671;BME280;28283;55.426;37.756;2024-02-04T10:04:51;96203.09;;;1.31;78.12
42671;BME280;28283;55.426;37.756;2024-02-04T10:09:52;96243.22;;;1.28;79.13
42671;BME280;28283;55.426;37.756;2024-02-04T10:14:53;96250.28;;;1.34;78.56
42671;BME280;28283;55.426;37.756;2024-02-04T10:19:53;96254.56;;;1.35;78.54
42671;BME280;28283;55.426;37.756;2024-02-04T10:24:53;96242.34;;;1.34;77.43
42671;BME280;28283;55.426;37.756;2024-02-04T10:29:54;96264.41;;;1.28;77.37
42671;BME280;28283;55.426;37.756;2024-02-04T10:34:54;96260.56;;;1.24;77.34
42671;BME280;28283;55.426;37.756;2024-02-04T10:39:55;96272.75;;;1.25;77.59
42671;BME280;28283;55.426;37.756;2024-02-04T10:44:55;96267.63;;;1.30;75.71
42671;BME280;28283;55.426;37.756;2024-02-04T10:49:58;96254.78;;;1.33;76.04
42671;BME280;28283;55.426;37.756;2024-02-04T10:54:58;96265.31;;;1.40;75.65
42671;BME280;28283;55.426;37.756;2024-02-04T10:59:59;96297.06;;;1.40;75.03
42671;BME280;28283;55.426;37.756;2024-02-04T11:05:00;96299.25;;;1.43;76.24
42671;BME280;28283;55.426;37.756;2024-02-04T11:10:01;96304.28;;;1.51;76.54
42671;BME280;28283;55.426;37.756;2024-02-04T11:15:05;96303.34;;;1.64;75.69
42671;BME280;28283;55.426;37.756;2024-02-04T11:25:14;96286.94;;;1.74;76.34
42671;BME280;28283;55.426;37.756;2024-02-04T11:30:19;96317.09;;;1.91;75.29
42671;BME280;28283;55.426;37.756;2024-02-04T11:35:19;96319.03;;;2.03;76.21
42671;BME280;28283;55.426;37.756;2024-02-04T11:40:20;96322.06;;;2.06;75.13
42671;BME280;28283;55.426;37.756;2024-02-04T11:45:21;96309.81;;;2.05;74.83
42671;BME280;28283;55.426;37.756;2024-02-04T11:50:27;96331.81;;;2.06;75.40
42671;BME280;28283;55.426;37.756;2024-02-04T11:55:27;96295.94;;;2.10;73.14
42671;BME280;28283;55.426;37.756;2024-02-04T12:00:28;96329.03;;;2.01;74.19
42671;BME280;28283;55.426;37.756;2024-02-04T12:05:30;96335.66;;;1.91;75.36
42671;BME280;28283;55.426;37.756;2024-02-04T12:10:32;96318.53;;;1.94;74.81
42671;BME280;28283;55.426;37.756;2024-02-04T12:15:36;96317.69;;;1.94;73.45
42671;BME280;28283;55.426;37.756;2024-02-04T12:20:37;96346.81;;;1.94;72.78
42671;BME280;28283;55.426;37.756;2024-02-04T12:25:38;96343.00;;;1.89;72.67
42671;BME280;28283;55.426;37.756;2024-02-04T12:30:39;96351.38;;;1.86;73.91
42671;BME280;28283;55.426;37.756;2024-02-04T12:35:39;96362.59;;;1.88;75.13
42671;BME280;28283;55.426;37.756;2024-02-04T12:40:40;96339.34;;;1.90;75.23
42671;BME280;28283;55.426;37.756;2024-02-04T12:45:40;96344.84;;;1.89;74.90
42671;BME280;28283;55.426;37.756;2024-02-04T12:50:41;96360.22;;;1.80;75.56
42671;BME280;28283;55.426;37.756;2024-02-04T12:55:41;96356.41;;;1.76;76.39
42671;BME280;28283;55.426;37.756;2024-02-04T13:00:43;96374.31;;;1.74;76.71
42671;BME280;28283;55.426;37.756;2024-02-04T13:05:43;96373.44;;;1.62;77.34
42671;BME280;28283;55.426;37.756;2024-02-04T13:10:46;96377.34;;;1.52;77.91
42671;BME280;28283;55.426;37.756;2024-02-04T13:15:53;96330.53;;;1.53;77.62
42671;BME280;28283;55.426;37.756;2024-02-04T13:20:54;96278.81;;;0.82;76.94
42671;BME280;28283;55.426;37.756;2024-02-04T13:25:54;96384.22;;;1.35;78.14
42671;BME280;28283;55.426;37.756;2024-02-04T13:30:55;96364.13;;;1.52;78.82
42671;BME280;28283;55.426;37.756;2024-02-04T13:35:56;96364.63;;;1.43;79.95
42671;BME280;28283;55.426;37.756;2024-02-04T13:40:57;96387.34;;;1.25;81.85
42671;BME280;28283;55.426;37.756;2024-02-04T13:45:57;96385.56;;;1.19;82.77
42671;BME280;28283;55.426;37.756;2024-02-04T13:50:58;96393.13;;;1.16;83.43
42671;BME280;28283;55.426;37.756;2024-02-04T13:55:58;96397.28;;;0.98;84.13
42671;BME280;28283;55.426;37.756;2024-02-04T14:00:59;96395.41;;;1.05;84.01
42671;BME280;28283;55.426;37.756;2024-02-04T14:06:00;96400.69;;;1.12;83.91
42671;BME280;28283;55.426;37.756;2024-02-04T14:11:03;96390.53;;;1.34;83.51
42671;BME280;28283;55.426;37.756;2024-02-04T14:16:04;96401.72;;;1.36;83.58
42671;BME280;28283;55.426;37.756;2024-02-04T14:21:06;96399.25;;;1.41;82.89
42671;BME280;28283;55.426;37.756;2024-02-04T14:26:07;96389.03;;;1.45;82.55
42671;BME280;28283;55.426;37.756;2024-02-04T14:31:08;96382.78;;;1.39;82.47
42671;BME280;28283;55.426;37.756;2024-02-04T14:36:09;96410.75;;;1.28;82.68
42671;BME280;28283;55.426;37.756;2024-02-04T14:41:10;96397.72;;;1.27;82.83
42671;BME280;28283;55.426;37.756;2024-02-04T14:46:12;96404.13;;;1.12;82.78
42671;BME280;28283;55.426;37.756;2024-02-04T14:51:12;96399.53;;;1.01;83.16
42671;BME280;28283;55.426;37.756;2024-02-04T14:56:13;96405.41;;;1.03;83.32
42671;BME280;28283;55.426;37.756;2024-02-04T15:01:14;96423.16;;;0.96;83.38
42671;BME280;28283;55.426;37.756;2024-02-04T15:06:14;96420.41;;;1.09;83.02
42671;BME280;28283;55.426;37.756;2024-02-04T15:11:16;96403.94;;;1.07;84.02
42671;BME280;28283;55.426;37.756;2024-02-04T15:16:16;96416.06;;;0.90;84.15
42671;BME280;28283;55.426;37.756;2024-02-04T15:21:17;96421.50;;;0.95;84.25
42671;BME280;28283;55.426;37.756;2024-02-04T15:26:17;96417.50;;;0.86;84.57
42671;BME280;28283;55.426;37.756;2024-02-04T15:31:20;96418.16;;;0.81;83.15
42671;BME280;28283;55.426;37.756;2024-02-04T15:36:21;96400.63;;;0.87;83.16
42671;BME280;28283;55.426;37.756;2024-02-04T15:41:22;96412.47;;;0.78;82.68
42671;BME280;28283;55.426;37.756;2024-02-04T15:46:31;96408.41;;;0.75;83.41
42671;BME280;28283;55.426;37.756;2024-02-04T15:51:32;96405.19;;;0.66;83.72
42671;BME280;28283;55.426;37.756;2024-02-04T15:56:33;96409.72;;;0.52;84.76
42671;BME280;28283;55.426;37.756;2024-02-04T16:01:34;96402.19;;;0.56;84.19
42671;BME280;28283;55.426;37.756;2024-02-04T16:06:34;96396.13;;;0.49;84.50
42671;BME280;28283;55.426;37.756;2024-02-04T16:11:39;96392.88;;;0.47;84.83
42671;BME280;28283;55.426;37.756;2024-02-04T16:16:42;96392.06;;;0.46;85.09
42671;BME280;28283;55.426;37.756;2024-02-04T16:21:45;96393.50;;;0.42;84.90
42671;BME280;28283;55.426;37.756;2024-02-04T16:26:46;96393.72;;;0.34;84.79
42671;BME280;28283;55.426;37.756;2024-02-04T16:31:46;96385.41;;;0.30;85.75
42671;BME280;28283;55.426;37.756;2024-02-04T16:36:47;96371.44;;;0.16;86.79
42671;BME280;28283;55.426;37.756;2024-02-04T16:41:50;96382.41;;;0.13;86.75
42671;BME280;28283;55.426;37.756;2024-02-04T16:46:51;96376.53;;;0.18;87.50
42671;BME280;28283;55.426;37.756;2024-02-04T16:51:52;96382.72;;;0.50;86.20
42671;BME280;28283;55.426;37.756;2024-02-04T16:56:52;96373.22;;;0.29;86.49
42671;BME280;28283;55.426;37.756;2024-02-04T17:01:53;96380.34;;;0.29;87.07
42671;BME280;28283;55.426;37.756;2024-02-04T17:06:53;96374.69;;;0.25;87.68
42671;BME280;28283;55.426;37.756;2024-02-04T17:11:54;96386.03;;;0.26;87.38
42671;BME280;28283;55.426;37.756;2024-02-04T17:22:14;96371.38;;;0.30;87.72
42671;BME280;28283;55.426;37.756;2024-02-04T17:27:16;96371.00;;;0.19;88.21
42671;BME280;28283;55.426;37.756;2024-02-04T17:32:17;96366.63;;;-0.07;89.54
42671;BME280;28283;55.426;37.756;2024-02-04T17:37:23;96364.13;;;0.18;89.14
42671;BME280;28283;55.426;37.756;2024-02-04T17:42:24;96360.03;;;0.23;89.08
42671;BME280;28283;55.426;37.756;2024-02-04T17:47:28;96358.44;;;0.22;88.82
42671;BME280;28283;55.426;37.756;2024-02-04T17:52:29;96357.66;;;0.14;89.34
42671;BME280;28283;55.426;37.756;2024-02-04T17:57:30;96349.72;;;0.14;89.17
42671;BME280;28283;55.426;37.756;2024-02-04T18:02:31;96343.97;;;0.24;89.08
42671;BME280;28283;55.426;37.756;2024-02-04T18:07:33;96351.88;;;0.31;87.75
42671;BME280;28283;55.426;37.756;2024-02-04T18:12:35;96357.41;;;0.23;88.12
42671;BME280;28283;55.426;37.756;2024-02-04T18:17:35;96351.88;;;0.31;87.95
42671;BME280;28283;55.426;37.756;2024-02-04T18:22:36;96350.28;;;0.23;87.88
42671;BME280;28283;55.426;37.756;2024-02-04T18:27:37;96350.66;;;0.27;87.75
42671;BME280;28283;55.426;37.756;2024-02-04T18:32:40;96346.41;;;0.26;88.01
42671;BME280;28283;55.426;37.756;2024-02-04T18:37:40;96345.97;;;0.35;87.62
42671;BME280;28283;55.426;37.756;2024-02-04T18:42:41;96349.66;;;0.28;87.25
42671;BME280;28283;55.426;37.756;2024-02-04T18:47:41;96358.75;;;0.38;86.82
42671;BME280;28283;55.426;37.756;2024-02-04T18:52:42;96356.72;;;0.34;86.44
42671;BME280;28283;55.426;37.756;2024-02-04T18:57:42;96352.13;;;0.16;86.80
42671;BME280;28283;55.426;37.756;2024-02-04T19:02:43;96347.97;;;0.47;85.55
42671;BME280;28283;55.426;37.756;2024-02-04T19:07:44;96362.38;;;0.44;85.45
42671;BME280;28283;55.426;37.756;2024-02-04T19:12:45;96355.53;;;0.30;85.11
42671;BME280;28283;55.426;37.756;2024-02-04T19:17:46;96354.53;;;0.31;85.92
42671;BME280;28283;55.426;37.756;2024-02-04T19:22:47;96368.13;;;0.34;86.04
42671;BME280;28283;55.426;37.756;2024-02-04T19:27:49;96370.19;;;0.32;86.58
42671;BME280;28283;55.426;37.756;2024-02-04T19:32:50;96370.19;;;0.32;86.20
42671;BME280;28283;55.426;37.756;2024-02-04T19:37:51;96372.44;;;0.29;86.62
42671;BME280;28283;55.426;37.756;2024-02-04T19:42:52;96370.81;;;0.21;87.83
42671;BME280;28283;55.426;37.756;2024-02-04T19:47:53;96368.72;;;0.36;87.76
42671;BME280;28283;55.426;37.756;2024-02-04T19:52:54;96380.34;;;0.29;87.67
42671;BME280;28283;55.426;37.756;2024-02-04T19:57:54;96366.75;;;0.25;88.52
42671;BME280;28283;55.426;37.756;2024-02-04T20:02:56;96374.69;;;0.18;88.53
42671;BME280;28283;55.426;37.756;2024-02-04T20:07:57;96384.44;;;0.18;87.99
42671;BME280;28283;55.426;37.756;2024-02-04T20:12:58;96386.91;;;0.13;87.92
42671;BME280;28283;55.426;37.756;2024-02-04T20:17:58;96394.44;;;-0.04;89.10
42671;BME280;28283;55.426;37.756;2024-02-04T20:22:59;96396.09;;;-0.10;89.48
42671;BME280;28283;55.426;37.756;2024-02-04T20:27:59;96398.53;;;-0.15;89.98
42671;BME280;28283;55.426;37.756;2024-02-04T20:33:00;96395.28;;;-0.17;89.89
42671;BME280;28283;55.426;37.756;2024-02-04T20:38:01;96388.59;;;-0.26;90.41
42671;BME280;28283;55.426;37.756;2024-02-04T20:43:02;96399.16;;;-0.20;90.50
42671;BME280;28283;55.426;37.756;2024-02-04T20:48:03;96402.59;;;-0.19;90.83
42671;BME280;28283;55.426;37.756;2024-02-04T20:53:03;96395.47;;;-0.18;90.81
42671;BME280;28283;55.426;37.756;2024-02-04T20:58:04;96402.38;;;-0.11;90.64
42671;BME280;28283;55.426;37.756;2024-02-04T21:03:04;96402.78;;;-0.07;90.57
42671;BME280;28283;55.426;37.756;2024-02-04T21:08:07;96410.28;;;-0.11;90.64
42671;BME280;28283;55.426;37.756;2024-02-04T21:13:08;96413.16;;;-0.12;90.78
42671;BME280;28283;55.426;37.756;2024-02-04T21:18:09;96404.44;;;-0.40;91.59
42671;BME280;28283;55.426;37.756;2024-02-04T21:23:10;96408.09;;;-0.21;91.83
42671;BME280;28283;55.426;37.756;2024-02-04T21:28:10;96410.13;;;-0.16;91.91
42671;BME280;28283;55.426;37.756;2024-02-04T21:33:11;96400.56;;;-0.24;92.17
42671;BME280;28283;55.426;37.756;2024-02-04T21:38:11;96393.28;;;-0.28;92.91
42671;BME280;28283;55.426;37.756;2024-02-04T21:43:12;96393.66;;;-0.18;92.78
42671;BME280;28283;55.426;37.756;2024-02-04T21:48:13;96395.47;;;-0.25;92.34
42671;BME280;28283;55.426;37.756;2024-02-04T21:53:13;96395.09;;;-0.22;92.13
42671;BME280;28283;55.426;37.756;2024-02-04T21:58:14;96409.88;;;-0.14;91.82
42671;BME280;28283;55.426;37.756;2024-02-04T22:03:16;96406.25;;;-0.20;91.84
42671;BME280;28283;55.426;37.756;2024-02-04T22:08:17;96403.81;;;-0.22;92.19
42671;BME280;28283;55.426;37.756;2024-02-04T22:13:18;96415.19;;;-0.21;91.35
42671;BME280;28283;55.426;37.756;2024-02-04T22:18:19;96418.25;;;-0.31;91.09
42671;BME280;28283;55.426;37.756;2024-02-04T22:23:20;96430.03;;;-0.33;91.37
42671;BME280;28283;55.426;37.756;2024-02-04T22:28:20;96422.09;;;-0.47;91.27
42671;BME280;28283;55.426;37.756;2024-02-04T22:33:20;96407.72;;;-0.37;90.61
42671;BME280;28283;55.426;37.756;2024-02-04T22:38:21;96406.91;;;-0.45;89.84
42671;BME280;28283;55.426;37.756;2024-02-04T22:43:21;96416.00;;;-0.54;89.91
42671;BME280;28283;55.426;37.756;2024-02-04T22:48:22;96406.69;;;-0.56;88.88
42671;BME280;28283;55.426;37.756;2024-02-04T22:53:23;96410.13;;;-0.56;88.13
42671;BME280;28283;55.426;37.756;2024-02-04T22:58:23;96405.84;;;-0.50;86.67
42671;BME280;28283;55.426;37.756;2024-02-04T23:03:24;96409.31;;;-0.56;86.61
42671;BME280;28283;55.426;37.756;2024-02-04T23:08:25;96407.47;;;-0.56;85.80
42671;BME280;28283;55.426;37.756;2024-02-04T23:13:26;96404.03;;;-0.56;85.87
42671;BME280;28283;55.426;37.756;2024-02-04T23:18:27;96406.47;;;-0.62;85.94
42671;BME280;28283;55.426;37.756;2024-02-04T23:23:27;96410.53;;;-0.66;86.44
42671;BME280;28283;55.426;37.756;2024-02-04T23:28:28;96398.34;;;-0.60;86.56
42671;BME280;28283;55.426;37.756;2024-02-04T23:33:29;96401.00;;;-0.60;85.90
42671;BME280;28283;55.426;37.756;2024-02-04T23:38:29;96399.16;;;-0.60;85.72
42671;BME280;28283;55.426;37.756;2024-02-04T23:43:30;96387.81;;;-0.60;85.62
42671;BME280;28283;55.426;37.756;2024-02-04T23:48:31;96389.44;;;-0.59;84.84
42671;BME280;28283;55.426;37.756;2024-02-04T23:53:31;96388.63;;;-0.73;84.87
42671;BME280;28283;55.426;37.756;2024-02-04T23:58:32;96394.28;;;-0.83;84.40
